Vg 117 Kungsvik — SBTH — position and weather

sailwx.info

Track history (hours):
 
Tides and Currents Weather Stations Pressure Air Temp Water Temp Dewpoint Dewpoint Depression Visibility Wind Speed Wind Dir Waves Ship Positions

Vg 117 Kungsvik

Last reported at 2017-May-19 02:19 UTC. Time now 2017-May-22 21:20 UTC.
Position N 56°59' E 012°02'.

Length 17 m; draft 3.7 m.

Type: Fishing. MMSI: 266137000.

Date/timePositionNaut miles runAvg speedWind from/ knotsBaromVisibWave heightAir tempDewpointWater temp
2017-May-19 02:19N 56°59' E 012°02'  
2017-May-16 01:31N 57°01' E 011°48'0 2.5
2017-May-16 01:25N 57°01' E 011°48'  
2017-May-10 08:23N 56°06' E 012°35'4 9.9
2017-May-10 08:00N 56°04' E 012°39'4 8.8
2017-May-10 07:30N 55°60' E 012°42'4 8.6
2017-May-10 07:00N 55°55' E 012°44'4 8.3
2017-May-10 06:30N 55°51' E 012°43'4 8.3
2017-May-10 06:00N 55°47' E 012°42'4 8.3
2017-May-10 05:30N 55°43' E 012°42'4 8.7
2017-May-10 05:00N 55°39' E 012°42'4 8.6
2017-May-10 04:30N 55°34' E 012°42'4 8.2
2017-May-10 04:00N 55°30' E 012°42'4 8.0
2017-May-10 03:30N 55°26' E 012°42'4 7.9
2017-May-10 02:58N 55°22' E 012°42'47 7.3
2017-May-09 20:33N 55°21' E 014°04'1 7.8
2017-May-09 20:28N 55°21' E 014°05'5 7.1
2017-May-09 19:45N 55°22' E 014°14'13 3.3
2017-May-09 15:48N 55°31' E 014°31'4 5.7
2017-May-09 15:05N 55°29' E 014°38'1 3.0
2017-May-09 14:37N 55°28' E 014°40'2 2.3
2017-May-09 13:40N 55°26' E 014°42'0 2.7
2017-May-09 13:30N 55°26' E 014°42'1 1.7
2017-May-09 12:50N 55°26' E 014°40'1 2.7
2017-May-09 12:26N 55°26' E 014°39'1 2.8
2017-May-09 11:55N 55°28' E 014°40'2 2.8
2017-May-09 11:16N 55°29' E 014°43'2 2.8
2017-May-09 10:40N 55°29' E 014°46'  
Track history (hours):
 
Tides and Currents Weather Stations Pressure Air Temp Water Temp Dewpoint Dewpoint Depression Visibility Wind Speed Wind Dir Waves Ship Positions

Vg 117 Kungsvik

Last reported at 2017-May-19 02:19 UTC. Time now 2017-May-22 21:20 UTC.
Position N 56°59' E 012°02'.

Length 17 m; draft 3.7 m.

Type: Fishing. MMSI: 266137000.

Date/timePositionNaut miles runAvg speedWind from/ knotsBaromVisibWave heightAir tempDewpointWater temp
2017-May-19 02:19N 56°59' E 012°02'  
2017-May-16 01:31N 57°01' E 011°48'0 2.5
2017-May-16 01:25N 57°01' E 011°48'  
2017-May-10 08:23N 56°06' E 012°35'4 9.9
2017-May-10 08:00N 56°04' E 012°39'4 8.8
2017-May-10 07:30N 55°60' E 012°42'4 8.6
2017-May-10 07:00N 55°55' E 012°44'4 8.3
2017-May-10 06:30N 55°51' E 012°43'4 8.3
2017-May-10 06:00N 55°47' E 012°42'4 8.3
2017-May-10 05:30N 55°43' E 012°42'4 8.7
2017-May-10 05:00N 55°39' E 012°42'4 8.6
2017-May-10 04:30N 55°34' E 012°42'4 8.2
2017-May-10 04:00N 55°30' E 012°42'4 8.0
2017-May-10 03:30N 55°26' E 012°42'4 7.9
2017-May-10 02:58N 55°22' E 012°42'47 7.3
2017-May-09 20:33N 55°21' E 014°04'1 7.8
2017-May-09 20:28N 55°21' E 014°05'5 7.1
2017-May-09 19:45N 55°22' E 014°14'13 3.3
2017-May-09 15:48N 55°31' E 014°31'4 5.7
2017-May-09 15:05N 55°29' E 014°38'1 3.0
2017-May-09 14:37N 55°28' E 014°40'2 2.3
2017-May-09 13:40N 55°26' E 014°42'0 2.7
2017-May-09 13:30N 55°26' E 014°42'1 1.7
2017-May-09 12:50N 55°26' E 014°40'1 2.7
2017-May-09 12:26N 55°26' E 014°39'1 2.8
2017-May-09 11:55N 55°28' E 014°40'2 2.8
2017-May-09 11:16N 55°29' E 014°43'2 2.8
2017-May-09 10:40N 55°29' E 014°46'  

Dump ship's entire track history